sensor_id;sensor_type;location;lat;lon;timestamp;P1;durP1;ratioP1;P2;durP2;ratioP2
3769;SDS011;1900;48.890;9.190;2023-04-21T00:01:25;17.23;;;12.87;;
3769;SDS011;1900;48.890;9.190;2023-04-21T00:03:51;16.50;;;12.07;;
3769;SDS011;1900;48.890;9.190;2023-04-21T00:06:19;15.33;;;11.07;;
3769;SDS011;1900;48.890;9.190;2023-04-21T00:08:46;17.30;;;11.40;;
3769;SDS011;1900;48.890;9.190;2023-04-21T00:11:13;17.07;;;12.57;;
3769;SDS011;1900;48.890;9.190;2023-04-21T00:13:39;17.73;;;11.90;;
3769;SDS011;1900;48.890;9.190;2023-04-21T00:16:05;17.13;;;11.60;;
3769;SDS011;1900;48.890;9.190;2023-04-21T00:18:31;16.07;;;12.07;;
3769;SDS011;1900;48.890;9.190;2023-04-21T00:20:57;13.60;;;11.70;;
3769;SDS011;1900;48.890;9.190;2023-04-21T00:23:23;15.90;;;11.13;;
3769;SDS011;1900;48.890;9.190;2023-04-21T00:25:48;16.00;;;11.40;;
3769;SDS011;1900;48.890;9.190;2023-04-21T00:28:14;14.50;;;10.07;;
3769;SDS011;1900;48.890;9.190;2023-04-21T00:30:40;15.77;;;10.40;;
3769;SDS011;1900;48.890;9.190;2023-04-21T00:33:05;15.30;;;11.60;;
3769;SDS011;1900;48.890;9.190;2023-04-21T00:35:31;15.70;;;12.07;;
3769;SDS011;1900;48.890;9.190;2023-04-21T00:37:59;17.20;;;11.20;;
3769;SDS011;1900;48.890;9.190;2023-04-21T00:40:25;18.77;;;12.73;;
3769;SDS011;1900;48.890;9.190;2023-04-21T00:42:51;14.50;;;11.27;;
3769;SDS011;1900;48.890;9.190;2023-04-21T00:45:17;14.50;;;11.70;;
3769;SDS011;1900;48.890;9.190;2023-04-21T00:47:43;16.80;;;12.03;;
3769;SDS011;1900;48.890;9.190;2023-04-21T00:50:10;17.43;;;12.90;;
3769;SDS011;1900;48.890;9.190;2023-04-21T00:52:36;18.10;;;12.50;;
3769;SDS011;1900;48.890;9.190;2023-04-21T00:55:06;18.10;;;12.37;;
3769;SDS011;1900;48.890;9.190;2023-04-21T00:57:32;15.47;;;10.83;;
3769;SDS011;1900;48.890;9.190;2023-04-21T01:00:00;17.53;;;11.77;;
3769;SDS011;1900;48.890;9.190;2023-04-21T01:02:27;19.53;;;12.50;;
3769;SDS011;1900;48.890;9.190;2023-04-21T01:04:53;16.90;;;12.10;;
3769;SDS011;1900;48.890;9.190;2023-04-21T01:07:19;16.40;;;12.57;;
3769;SDS011;1900;48.890;9.190;2023-04-21T01:09:44;17.70;;;12.53;;
3769;SDS011;1900;48.890;9.190;2023-04-21T01:12:10;16.33;;;12.57;;
3769;SDS011;1900;48.890;9.190;2023-04-21T01:14:37;20.40;;;13.50;;
3769;SDS011;1900;48.890;9.190;2023-04-21T01:17:03;18.80;;;13.23;;
3769;SDS011;1900;48.890;9.190;2023-04-21T01:19:37;20.10;;;13.87;;
3769;SDS011;1900;48.890;9.190;2023-04-21T01:22:06;19.93;;;13.90;;
3769;SDS011;1900;48.890;9.190;2023-04-21T01:24:36;20.20;;;13.90;;
3769;SDS011;1900;48.890;9.190;2023-04-21T01:27:12;18.60;;;12.87;;
3769;SDS011;1900;48.890;9.190;2023-04-21T01:29:38;18.73;;;12.87;;
3769;SDS011;1900;48.890;9.190;2023-04-21T01:32:07;19.07;;;12.87;;
3769;SDS011;1900;48.890;9.190;2023-04-21T01:34:35;19.90;;;13.67;;
3769;SDS011;1900;48.890;9.190;2023-04-21T01:37:02;19.87;;;13.50;;
3769;SDS011;1900;48.890;9.190;2023-04-21T01:39:31;19.00;;;13.60;;
3769;SDS011;1900;48.890;9.190;2023-04-21T01:41:56;17.87;;;12.90;;
3769;SDS011;1900;48.890;9.190;2023-04-21T01:44:23;22.47;;;13.67;;
3769;SDS011;1900;48.890;9.190;2023-04-21T01:46:50;16.27;;;12.10;;
3769;SDS011;1900;48.890;9.190;2023-04-21T01:49:16;19.53;;;12.80;;
3769;SDS011;1900;48.890;9.190;2023-04-21T01:51:42;16.90;;;12.53;;
3769;SDS011;1900;48.890;9.190;2023-04-21T01:54:08;17.80;;;13.87;;
3769;SDS011;1900;48.890;9.190;2023-04-21T01:56:33;18.00;;;12.67;;
3769;SDS011;1900;48.890;9.190;2023-04-21T01:58:59;20.87;;;13.40;;
3769;SDS011;1900;48.890;9.190;2023-04-21T02:01:25;22.40;;;14.00;;
3769;SDS011;1900;48.890;9.190;2023-04-21T02:03:51;17.60;;;12.93;;
3769;SDS011;1900;48.890;9.190;2023-04-21T02:06:16;19.37;;;12.67;;
3769;SDS011;1900;48.890;9.190;2023-04-21T02:08:42;20.00;;;12.90;;
3769;SDS011;1900;48.890;9.190;2023-04-21T02:11:08;17.73;;;12.60;;
3769;SDS011;1900;48.890;9.190;2023-04-21T02:13:33;17.30;;;12.10;;
3769;SDS011;1900;48.890;9.190;2023-04-21T02:15:59;20.30;;;12.60;;
3769;SDS011;1900;48.890;9.190;2023-04-21T02:18:25;17.27;;;13.07;;
3769;SDS011;1900;48.890;9.190;2023-04-21T02:20:53;19.00;;;13.07;;
3769;SDS011;1900;48.890;9.190;2023-04-21T02:23:20;23.60;;;14.07;;
3769;SDS011;1900;48.890;9.190;2023-04-21T02:25:46;16.97;;;12.27;;
3769;SDS011;1900;48.890;9.190;2023-04-21T02:28:12;21.40;;;13.63;;
3769;SDS011;1900;48.890;9.190;2023-04-21T02:30:38;23.20;;;14.90;;
3769;SDS011;1900;48.890;9.190;2023-04-21T02:33:03;17.30;;;12.63;;
3769;SDS011;1900;48.890;9.190;2023-04-21T02:35:29;17.17;;;12.40;;
3769;SDS011;1900;48.890;9.190;2023-04-21T02:37:56;16.70;;;12.30;;
3769;SDS011;1900;48.890;9.190;2023-04-21T02:40:21;17.00;;;12.73;;
3769;SDS011;1900;48.890;9.190;2023-04-21T02:42:47;19.93;;;12.77;;
3769;SDS011;1900;48.890;9.190;2023-04-21T02:45:13;17.57;;;11.87;;
3769;SDS011;1900;48.890;9.190;2023-04-21T02:47:39;16.60;;;11.70;;
3769;SDS011;1900;48.890;9.190;2023-04-21T02:50:04;19.20;;;12.97;;
3769;SDS011;1900;48.890;9.190;2023-04-21T02:52:34;15.83;;;11.97;;
3769;SDS011;1900;48.890;9.190;2023-04-21T02:55:01;19.30;;;12.67;;
3769;SDS011;1900;48.890;9.190;2023-04-21T02:57:27;19.30;;;12.03;;
3769;SDS011;1900;48.890;9.190;2023-04-21T02:59:53;20.70;;;14.17;;
3769;SDS011;1900;48.890;9.190;2023-04-21T03:02:18;18.20;;;12.97;;
3769;SDS011;1900;48.890;9.190;2023-04-21T03:04:44;14.83;;;11.00;;
3769;SDS011;1900;48.890;9.190;2023-04-21T03:07:10;17.10;;;12.30;;
3769;SDS011;1900;48.890;9.190;2023-04-21T03:09:37;18.00;;;11.40;;
3769;SDS011;1900;48.890;9.190;2023-04-21T03:12:04;17.97;;;12.93;;
3769;SDS011;1900;48.890;9.190;2023-04-21T03:14:29;17.90;;;11.50;;
3769;SDS011;1900;48.890;9.190;2023-04-21T03:16:55;17.80;;;12.90;;
3769;SDS011;1900;48.890;9.190;2023-04-21T03:19:21;17.07;;;12.53;;
3769;SDS011;1900;48.890;9.190;2023-04-21T03:21:46;19.50;;;13.20;;
3769;SDS011;1900;48.890;9.190;2023-04-21T03:24:12;23.13;;;13.30;;
3769;SDS011;1900;48.890;9.190;2023-04-21T03:26:41;20.13;;;12.87;;
3769;SDS011;1900;48.890;9.190;2023-04-21T03:29:06;19.33;;;12.63;;
3769;SDS011;1900;48.890;9.190;2023-04-21T03:31:32;19.80;;;11.90;;
3769;SDS011;1900;48.890;9.190;2023-04-21T03:33:58;21.30;;;13.13;;
3769;SDS011;1900;48.890;9.190;2023-04-21T03:36:23;20.50;;;12.97;;
3769;SDS011;1900;48.890;9.190;2023-04-21T03:38:49;20.00;;;13.30;;
3769;SDS011;1900;48.890;9.190;2023-04-21T03:41:15;18.77;;;11.50;;
3769;SDS011;1900;48.890;9.190;2023-04-21T03:43:41;19.83;;;12.33;;
3769;SDS011;1900;48.890;9.190;2023-04-21T03:46:06;17.90;;;11.93;;
3769;SDS011;1900;48.890;9.190;2023-04-21T03:48:32;14.10;;;10.10;;
3769;SDS011;1900;48.890;9.190;2023-04-21T03:50:58;15.30;;;10.23;;
3769;SDS011;1900;48.890;9.190;2023-04-21T03:53:23;14.17;;;10.17;;
3769;SDS011;1900;48.890;9.190;2023-04-21T03:55:49;16.97;;;10.60;;
3769;SDS011;1900;48.890;9.190;2023-04-21T03:58:15;14.70;;;9.87;;
3769;SDS011;1900;48.890;9.190;2023-04-21T04:00:41;15.87;;;10.97;;
3769;SDS011;1900;48.890;9.190;2023-04-21T04:03:07;14.13;;;10.87;;
3769;SDS011;1900;48.890;9.190;2023-04-21T04:05:34;16.33;;;10.63;;
3769;SDS011;1900;48.890;9.190;2023-04-21T04:08:00;16.50;;;11.63;;
3769;SDS011;1900;48.890;9.190;2023-04-21T04:10:26;13.53;;;10.90;;
3769;SDS011;1900;48.890;9.190;2023-04-21T04:12:52;14.73;;;11.10;;
3769;SDS011;1900;48.890;9.190;2023-04-21T04:15:19;17.03;;;10.73;;
3769;SDS011;1900;48.890;9.190;2023-04-21T04:17:45;13.60;;;10.53;;
3769;SDS011;1900;48.890;9.190;2023-04-21T04:20:11;14.00;;;10.03;;
3769;SDS011;1900;48.890;9.190;2023-04-21T04:22:36;11.20;;;8.90;;
3769;SDS011;1900;48.890;9.190;2023-04-21T04:25:02;14.10;;;10.17;;
3769;SDS011;1900;48.890;9.190;2023-04-21T04:27:29;15.23;;;9.80;;
3769;SDS011;1900;48.890;9.190;2023-04-21T04:29:55;11.17;;;8.60;;
3769;SDS011;1900;48.890;9.190;2023-04-21T04:32:21;13.50;;;9.00;;
3769;SDS011;1900;48.890;9.190;2023-04-21T04:34:47;12.27;;;9.50;;
3769;SDS011;1900;48.890;9.190;2023-04-21T04:37:13;11.70;;;8.50;;
3769;SDS011;1900;48.890;9.190;2023-04-21T04:39:38;11.20;;;8.03;;
3769;SDS011;1900;48.890;9.190;2023-04-21T04:42:07;10.90;;;7.27;;
3769;SDS011;1900;48.890;9.190;2023-04-21T04:44:34;9.67;;;6.93;;
3769;SDS011;1900;48.890;9.190;2023-04-21T04:47:00;7.70;;;6.67;;
3769;SDS011;1900;48.890;9.190;2023-04-21T04:49:26;11.67;;;7.90;;
3769;SDS011;1900;48.890;9.190;2023-04-21T04:51:52;13.37;;;8.60;;
3769;SDS011;1900;48.890;9.190;2023-04-21T04:54:17;11.90;;;8.23;;
3769;SDS011;1900;48.890;9.190;2023-04-21T04:56:43;10.80;;;8.10;;
3769;SDS011;1900;48.890;9.190;2023-04-21T04:59:08;11.80;;;8.33;;
3769;SDS011;1900;48.890;9.190;2023-04-21T05:01:34;13.17;;;8.60;;
3769;SDS011;1900;48.890;9.190;2023-04-21T05:04:02;10.50;;;8.50;;
3769;SDS011;1900;48.890;9.190;2023-04-21T05:06:28;9.70;;;8.23;;
3769;SDS011;1900;48.890;9.190;2023-04-21T05:08:54;9.50;;;7.43;;
3769;SDS011;1900;48.890;9.190;2023-04-21T05:11:20;15.73;;;10.07;;
3769;SDS011;1900;48.890;9.190;2023-04-21T05:13:46;10.60;;;8.83;;
3769;SDS011;1900;48.890;9.190;2023-04-21T05:16:11;14.27;;;9.37;;
3769;SDS011;1900;48.890;9.190;2023-04-21T05:18:37;11.40;;;8.70;;
3769;SDS011;1900;48.890;9.190;2023-04-21T05:21:03;12.43;;;9.27;;
3769;SDS011;1900;48.890;9.190;2023-04-21T05:23:29;13.03;;;10.40;;
3769;SDS011;1900;48.890;9.190;2023-04-21T05:25:55;12.83;;;10.23;;
3769;SDS011;1900;48.890;9.190;2023-04-21T05:28:20;14.10;;;10.37;;
3769;SDS011;1900;48.890;9.190;2023-04-21T05:30:47;15.03;;;11.60;;
3769;SDS011;1900;48.890;9.190;2023-04-21T05:33:13;19.57;;;12.27;;
3769;SDS011;1900;48.890;9.190;2023-04-21T05:35:38;18.43;;;11.77;;
3769;SDS011;1900;48.890;9.190;2023-04-21T05:38:04;18.10;;;11.47;;
3769;SDS011;1900;48.890;9.190;2023-04-21T05:40:30;16.90;;;11.33;;
3769;SDS011;1900;48.890;9.190;2023-04-21T05:42:56;22.20;;;11.03;;
3769;SDS011;1900;48.890;9.190;2023-04-21T05:45:21;17.27;;;11.53;;
3769;SDS011;1900;48.890;9.190;2023-04-21T05:47:47;20.50;;;13.30;;
3769;SDS011;1900;48.890;9.190;2023-04-21T05:50:13;19.77;;;12.67;;
3769;SDS011;1900;48.890;9.190;2023-04-21T05:52:38;22.90;;;12.53;;
3769;SDS011;1900;48.890;9.190;2023-04-21T05:55:04;19.10;;;13.70;;
3769;SDS011;1900;48.890;9.190;2023-04-21T05:57:30;18.53;;;12.30;;
3769;SDS011;1900;48.890;9.190;2023-04-21T05:59:56;20.80;;;11.83;;
3769;SDS011;1900;48.890;9.190;2023-04-21T06:02:22;19.77;;;12.97;;
3769;SDS011;1900;48.890;9.190;2023-04-21T06:04:48;22.10;;;12.87;;
3769;SDS011;1900;48.890;9.190;2023-04-21T06:07:13;19.20;;;12.60;;
3769;SDS011;1900;48.890;9.190;2023-04-21T06:09:39;20.20;;;14.37;;
3769;SDS011;1900;48.890;9.190;2023-04-21T06:12:05;21.97;;;14.23;;
3769;SDS011;1900;48.890;9.190;2023-04-21T06:14:31;23.07;;;14.13;;
3769;SDS011;1900;48.890;9.190;2023-04-21T06:16:57;21.10;;;14.90;;
3769;SDS011;1900;48.890;9.190;2023-04-21T06:19:23;27.50;;;15.30;;
3769;SDS011;1900;48.890;9.190;2023-04-21T06:21:49;23.10;;;14.50;;
3769;SDS011;1900;48.890;9.190;2023-04-21T06:24:15;25.27;;;14.87;;
3769;SDS011;1900;48.890;9.190;2023-04-21T06:26:41;25.40;;;14.97;;
3769;SDS011;1900;48.890;9.190;2023-04-21T06:29:06;20.80;;;13.10;;
3769;SDS011;1900;48.890;9.190;2023-04-21T06:31:32;26.50;;;15.50;;
3769;SDS011;1900;48.890;9.190;2023-04-21T06:33:58;22.67;;;14.80;;
3769;SDS011;1900;48.890;9.190;2023-04-21T06:36:23;29.80;;;14.63;;
3769;SDS011;1900;48.890;9.190;2023-04-21T06:38:49;24.03;;;14.77;;
3769;SDS011;1900;48.890;9.190;2023-04-21T06:41:16;21.50;;;13.70;;
3769;SDS011;1900;48.890;9.190;2023-04-21T06:43:42;26.43;;;15.03;;
3769;SDS011;1900;48.890;9.190;2023-04-21T06:46:07;23.57;;;14.50;;
3769;SDS011;1900;48.890;9.190;2023-04-21T06:48:33;26.87;;;15.77;;
3769;SDS011;1900;48.890;9.190;2023-04-21T06:50:59;25.60;;;15.80;;
3769;SDS011;1900;48.890;9.190;2023-04-21T06:53:26;20.93;;;13.60;;
3769;SDS011;1900;48.890;9.190;2023-04-21T06:55:52;26.43;;;15.23;;
3769;SDS011;1900;48.890;9.190;2023-04-21T06:58:18;23.37;;;15.30;;
3769;SDS011;1900;48.890;9.190;2023-04-21T07:00:43;25.43;;;14.00;;
3769;SDS011;1900;48.890;9.190;2023-04-21T07:03:09;19.17;;;13.47;;
3769;SDS011;1900;48.890;9.190;2023-04-21T07:05:35;21.20;;;13.67;;
3769;SDS011;1900;48.890;9.190;2023-04-21T07:08:01;19.67;;;13.23;;
3769;SDS011;1900;48.890;9.190;2023-04-21T07:10:27;19.57;;;13.37;;
3769;SDS011;1900;48.890;9.190;2023-04-21T07:12:53;17.07;;;12.03;;
3769;SDS011;1900;48.890;9.190;2023-04-21T07:15:20;21.17;;;13.17;;
3769;SDS011;1900;48.890;9.190;2023-04-21T07:17:46;19.10;;;12.93;;
3769;SDS011;1900;48.890;9.190;2023-04-21T07:20:12;21.33;;;12.57;;
3769;SDS011;1900;48.890;9.190;2023-04-21T07:22:37;22.70;;;13.13;;
3769;SDS011;1900;48.890;9.190;2023-04-21T07:25:03;20.77;;;13.93;;
3769;SDS011;1900;48.890;9.190;2023-04-21T07:27:33;18.43;;;13.27;;
3769;SDS011;1900;48.890;9.190;2023-04-21T07:30:01;19.80;;;13.37;;
3769;SDS011;1900;48.890;9.190;2023-04-21T07:32:27;21.77;;;13.30;;
3769;SDS011;1900;48.890;9.190;2023-04-21T07:34:53;17.70;;;11.63;;
3769;SDS011;1900;48.890;9.190;2023-04-21T07:37:19;17.43;;;12.10;;
3769;SDS011;1900;48.890;9.190;2023-04-21T07:39:46;18.00;;;11.83;;
3769;SDS011;1900;48.890;9.190;2023-04-21T07:42:11;21.73;;;14.00;;
3769;SDS011;1900;48.890;9.190;2023-04-21T07:44:37;20.07;;;12.77;;
3769;SDS011;1900;48.890;9.190;2023-04-21T07:47:03;14.40;;;10.80;;
3769;SDS011;1900;48.890;9.190;2023-04-21T07:49:29;19.07;;;12.50;;
3769;SDS011;1900;48.890;9.190;2023-04-21T07:51:55;14.47;;;10.30;;
3769;SDS011;1900;48.890;9.190;2023-04-21T07:54:21;14.07;;;10.53;;
3769;SDS011;1900;48.890;9.190;2023-04-21T07:56:46;17.60;;;11.40;;
3769;SDS011;1900;48.890;9.190;2023-04-21T07:59:12;15.40;;;10.30;;
3769;SDS011;1900;48.890;9.190;2023-04-21T08:01:38;15.50;;;11.07;;
3769;SDS011;1900;48.890;9.190;2023-04-21T08:04:04;17.23;;;11.73;;
3769;SDS011;1900;48.890;9.190;2023-04-21T08:06:30;14.90;;;10.20;;
3769;SDS011;1900;48.890;9.190;2023-04-21T08:08:57;16.10;;;10.40;;
3769;SDS011;1900;48.890;9.190;2023-04-21T08:11:23;16.63;;;12.30;;
3769;SDS011;1900;48.890;9.190;2023-04-21T08:13:49;13.10;;;10.70;;
3769;SDS011;1900;48.890;9.190;2023-04-21T08:16:15;12.43;;;8.90;;
3769;SDS011;1900;48.890;9.190;2023-04-21T08:18:41;10.07;;;7.97;;
3769;SDS011;1900;48.890;9.190;2023-04-21T08:21:07;13.77;;;8.93;;
3769;SDS011;1900;48.890;9.190;2023-04-21T08:23:33;16.73;;;9.40;;
3769;SDS011;1900;48.890;9.190;2023-04-21T08:25:59;15.00;;;9.53;;
3769;SDS011;1900;48.890;9.190;2023-04-21T08:28:26;12.97;;;9.13;;
3769;SDS011;1900;48.890;9.190;2023-04-21T08:30:52;11.57;;;8.07;;
3769;SDS011;1900;48.890;9.190;2023-04-21T08:33:17;12.60;;;9.63;;
3769;SDS011;1900;48.890;9.190;2023-04-21T08:35:43;13.00;;;9.03;;
3769;SDS011;1900;48.890;9.190;2023-04-21T08:38:09;14.57;;;9.53;;
3769;SDS011;1900;48.890;9.190;2023-04-21T08:40:36;13.43;;;9.77;;
3769;SDS011;1900;48.890;9.190;2023-04-21T08:43:05;11.50;;;8.00;;
3769;SDS011;1900;48.890;9.190;2023-04-21T08:45:32;12.83;;;8.73;;
3769;SDS011;1900;48.890;9.190;2023-04-21T08:47:59;11.53;;;8.63;;
3769;SDS011;1900;48.890;9.190;2023-04-21T08:50:27;14.07;;;8.53;;
3769;SDS011;1900;48.890;9.190;2023-04-21T08:52:54;11.87;;;8.63;;
3769;SDS011;1900;48.890;9.190;2023-04-21T08:55:30;12.20;;;8.80;;
3769;SDS011;1900;48.890;9.190;2023-04-21T08:57:57;12.67;;;8.83;;
3769;SDS011;1900;48.890;9.190;2023-04-21T09:00:23;10.70;;;8.27;;
3769;SDS011;1900;48.890;9.190;2023-04-21T09:02:52;11.80;;;7.20;;
3769;SDS011;1900;48.890;9.190;2023-04-21T09:05:25;9.33;;;7.80;;
3769;SDS011;1900;48.890;9.190;2023-04-21T09:08:13;15.77;;;8.43;;
3769;SDS011;1900;48.890;9.190;2023-04-21T09:13:09;9.50;;;6.70;;
3769;SDS011;1900;48.890;9.190;2023-04-21T09:15:38;10.90;;;8.20;;
3769;SDS011;1900;48.890;9.190;2023-04-21T09:18:12;8.60;;;7.40;;
3769;SDS011;1900;48.890;9.190;2023-04-21T09:20:39;13.60;;;9.13;;
3769;SDS011;1900;48.890;9.190;2023-04-21T09:23:06;11.17;;;8.77;;
3769;SDS011;1900;48.890;9.190;2023-04-21T09:25:32;11.93;;;8.70;;
3769;SDS011;1900;48.890;9.190;2023-04-21T09:27:59;9.47;;;7.70;;
3769;SDS011;1900;48.890;9.190;2023-04-21T09:30:25;10.77;;;7.87;;
3769;SDS011;1900;48.890;9.190;2023-04-21T09:32:54;13.73;;;10.40;;
3769;SDS011;1900;48.890;9.190;2023-04-21T09:35:27;12.50;;;8.80;;
3769;SDS011;1900;48.890;9.190;2023-04-21T09:37:53;11.47;;;8.20;;
3769;SDS011;1900;48.890;9.190;2023-04-21T09:40:19;10.73;;;7.83;;
3769;SDS011;1900;48.890;9.190;2023-04-21T09:42:45;8.77;;;7.17;;
3769;SDS011;1900;48.890;9.190;2023-04-21T09:45:11;10.60;;;7.50;;
3769;SDS011;1900;48.890;9.190;2023-04-21T09:47:39;9.87;;;7.80;;
3769;SDS011;1900;48.890;9.190;2023-04-21T09:50:07;10.60;;;8.37;;
3769;SDS011;1900;48.890;9.190;2023-04-21T09:52:36;12.17;;;8.23;;
3769;SDS011;1900;48.890;9.190;2023-04-21T09:55:03;10.50;;;7.30;;
3769;SDS011;1900;48.890;9.190;2023-04-21T09:57:34;10.00;;;6.97;;
3769;SDS011;1900;48.890;9.190;2023-04-21T10:00:04;10.67;;;7.93;;
3769;SDS011;1900;48.890;9.190;2023-04-21T10:02:37;10.90;;;8.10;;
3769;SDS011;1900;48.890;9.190;2023-04-21T10:05:07;8.70;;;7.03;;
3769;SDS011;1900;48.890;9.190;2023-04-21T10:07:34;12.10;;;8.30;;
3769;SDS011;1900;48.890;9.190;2023-04-21T10:10:00;9.97;;;7.63;;
3769;SDS011;1900;48.890;9.190;2023-04-21T10:12:27;11.27;;;8.00;;
3769;SDS011;1900;48.890;9.190;2023-04-21T10:14:53;8.63;;;7.03;;
3769;SDS011;1900;48.890;9.190;2023-04-21T10:17:23;10.70;;;7.63;;
3769;SDS011;1900;48.890;9.190;2023-04-21T10:19:54;10.03;;;7.27;;
3769;SDS011;1900;48.890;9.190;2023-04-21T10:22:25;9.70;;;7.67;;
3769;SDS011;1900;48.890;9.190;2023-04-21T10:24:53;15.60;;;7.90;;
3769;SDS011;1900;48.890;9.190;2023-04-21T10:29:58;10.00;;;7.33;;
3769;SDS011;1900;48.890;9.190;2023-04-21T10:35:36;11.30;;;7.80;;
3769;SDS011;1900;48.890;9.190;2023-04-21T10:38:38;11.13;;;7.10;;
3769;SDS011;1900;48.890;9.190;2023-04-21T10:43:57;10.43;;;7.87;;
3769;SDS011;1900;48.890;9.190;2023-04-21T10:46:59;8.53;;;6.70;;
3769;SDS011;1900;48.890;9.190;2023-04-21T10:49:28;9.50;;;6.53;;
3769;SDS011;1900;48.890;9.190;2023-04-21T10:57:17;12.60;;;7.83;;
3769;SDS011;1900;48.890;9.190;2023-04-21T10:59:45;9.20;;;6.97;;
3769;SDS011;1900;48.890;9.190;2023-04-21T11:02:12;10.07;;;6.60;;
3769;SDS011;1900;48.890;9.190;2023-04-21T11:04:39;8.40;;;7.07;;
3769;SDS011;1900;48.890;9.190;2023-04-21T11:07:18;9.03;;;6.93;;
3769;SDS011;1900;48.890;9.190;2023-04-21T11:09:47;10.47;;;7.73;;
3769;SDS011;1900;48.890;9.190;2023-04-21T11:12:20;10.57;;;7.67;;
3769;SDS011;1900;48.890;9.190;2023-04-21T11:14:46;10.10;;;8.37;;
3769;SDS011;1900;48.890;9.190;2023-04-21T11:17:13;8.70;;;6.90;;
3769;SDS011;1900;48.890;9.190;2023-04-21T11:19:41;7.90;;;6.50;;
3769;SDS011;1900;48.890;9.190;2023-04-21T11:22:10;10.23;;;8.13;;
3769;SDS011;1900;48.890;9.190;2023-04-21T11:24:36;9.73;;;7.40;;
3769;SDS011;1900;48.890;9.190;2023-04-21T11:27:01;10.80;;;7.93;;
3769;SDS011;1900;48.890;9.190;2023-04-21T11:29:28;9.37;;;6.63;;
3769;SDS011;1900;48.890;9.190;2023-04-21T11:31:53;8.73;;;6.23;;
3769;SDS011;1900;48.890;9.190;2023-04-21T11:34:20;8.60;;;6.70;;
3769;SDS011;1900;48.890;9.190;2023-04-21T11:36:46;9.50;;;6.40;;
3769;SDS011;1900;48.890;9.190;2023-04-21T11:39:13;10.53;;;6.10;;
3769;SDS011;1900;48.890;9.190;2023-04-21T11:41:47;7.20;;;5.90;;
3769;SDS011;1900;48.890;9.190;2023-04-21T11:44:29;8.87;;;6.13;;
3769;SDS011;1900;48.890;9.190;2023-04-21T11:52:25;11.00;;;5.70;;
3769;SDS011;1900;48.890;9.190;2023-04-21T11:54:58;9.50;;;5.43;;
3769;SDS011;1900;48.890;9.190;2023-04-21T11:57:25;8.50;;;5.73;;
3769;SDS011;1900;48.890;9.190;2023-04-21T11:59:52;6.60;;;5.70;;
3769;SDS011;1900;48.890;9.190;2023-04-21T12:02:24;10.00;;;6.20;;
3769;SDS011;1900;48.890;9.190;2023-04-21T12:07:58;7.80;;;6.50;;
3769;SDS011;1900;48.890;9.190;2023-04-21T12:10:24;8.73;;;6.40;;
3769;SDS011;1900;48.890;9.190;2023-04-21T12:12:49;7.57;;;6.00;;
3769;SDS011;1900;48.890;9.190;2023-04-21T12:15:19;8.53;;;6.83;;
3769;SDS011;1900;48.890;9.190;2023-04-21T12:17:51;10.67;;;7.40;;
3769;SDS011;1900;48.890;9.190;2023-04-21T12:20:18;9.07;;;5.97;;
3769;SDS011;1900;48.890;9.190;2023-04-21T12:22:47;8.57;;;6.80;;
3769;SDS011;1900;48.890;9.190;2023-04-21T12:25:13;7.63;;;6.13;;
3769;SDS011;1900;48.890;9.190;2023-04-21T12:27:52;8.23;;;6.10;;
3769;SDS011;1900;48.890;9.190;2023-04-21T12:30:22;7.80;;;6.53;;
3769;SDS011;1900;48.890;9.190;2023-04-21T12:32:48;11.43;;;6.70;;
3769;SDS011;1900;48.890;9.190;2023-04-21T12:35:13;8.03;;;5.90;;
3769;SDS011;1900;48.890;9.190;2023-04-21T12:37:39;6.20;;;5.53;;
3769;SDS011;1900;48.890;9.190;2023-04-21T12:40:05;9.73;;;6.93;;
3769;SDS011;1900;48.890;9.190;2023-04-21T12:42:32;11.33;;;7.70;;
3769;SDS011;1900;48.890;9.190;2023-04-21T12:44:57;7.90;;;6.47;;
3769;SDS011;1900;48.890;9.190;2023-04-21T12:47:23;9.40;;;7.50;;
3769;SDS011;1900;48.890;9.190;2023-04-21T12:49:49;9.70;;;6.73;;
3769;SDS011;1900;48.890;9.190;2023-04-21T12:52:15;8.80;;;6.60;;
3769;SDS011;1900;48.890;9.190;2023-04-21T12:54:40;12.57;;;8.03;;
3769;SDS011;1900;48.890;9.190;2023-04-21T12:57:07;8.30;;;6.17;;
3769;SDS011;1900;48.890;9.190;2023-04-21T12:59:34;11.50;;;7.83;;
3769;SDS011;1900;48.890;9.190;2023-04-21T13:01:59;7.20;;;6.30;;
3769;SDS011;1900;48.890;9.190;2023-04-21T13:04:25;6.40;;;4.83;;
3769;SDS011;1900;48.890;9.190;2023-04-21T13:06:51;9.20;;;6.30;;
3769;SDS011;1900;48.890;9.190;2023-04-21T13:09:17;10.40;;;7.37;;
3769;SDS011;1900;48.890;9.190;2023-04-21T13:11:43;8.10;;;5.50;;
3769;SDS011;1900;48.890;9.190;2023-04-21T13:14:08;8.50;;;7.13;;
3769;SDS011;1900;48.890;9.190;2023-04-21T13:16:34;8.93;;;6.03;;
3769;SDS011;1900;48.890;9.190;2023-04-21T13:19:00;6.33;;;5.23;;
3769;SDS011;1900;48.890;9.190;2023-04-21T13:21:26;9.90;;;7.10;;
3769;SDS011;1900;48.890;9.190;2023-04-21T13:23:52;9.20;;;6.80;;
3769;SDS011;1900;48.890;9.190;2023-04-21T13:26:17;9.83;;;8.07;;
3769;SDS011;1900;48.890;9.190;2023-04-21T13:28:43;10.57;;;7.20;;
3769;SDS011;1900;48.890;9.190;2023-04-21T13:31:09;12.77;;;7.47;;
3769;SDS011;1900;48.890;9.190;2023-04-21T13:33:35;7.47;;;6.30;;
3769;SDS011;1900;48.890;9.190;2023-04-21T13:36:01;7.47;;;5.60;;
3769;SDS011;1900;48.890;9.190;2023-04-21T13:38:27;6.50;;;5.50;;
3769;SDS011;1900;48.890;9.190;2023-04-21T13:40:53;6.23;;;5.60;;
3769;SDS011;1900;48.890;9.190;2023-04-21T13:43:19;10.27;;;8.40;;
3769;SDS011;1900;48.890;9.190;2023-04-21T13:45:45;8.60;;;6.10;;
3769;SDS011;1900;48.890;9.190;2023-04-21T13:48:12;7.63;;;5.53;;
3769;SDS011;1900;48.890;9.190;2023-04-21T13:50:38;9.03;;;7.17;;
3769;SDS011;1900;48.890;9.190;2023-04-21T13:53:03;9.20;;;5.77;;
3769;SDS011;1900;48.890;9.190;2023-04-21T13:55:30;7.07;;;5.33;;
3769;SDS011;1900;48.890;9.190;2023-04-21T13:57:57;8.53;;;6.07;;
3769;SDS011;1900;48.890;9.190;2023-04-21T14:00:24;9.53;;;6.43;;
3769;SDS011;1900;48.890;9.190;2023-04-21T14:02:50;7.40;;;6.70;;
3769;SDS011;1900;48.890;9.190;2023-04-21T14:05:16;7.50;;;6.17;;
3769;SDS011;1900;48.890;9.190;2023-04-21T14:07:42;10.50;;;5.77;;
3769;SDS011;1900;48.890;9.190;2023-04-21T14:10:07;7.80;;;6.73;;
3769;SDS011;1900;48.890;9.190;2023-04-21T14:12:33;6.97;;;6.00;;
3769;SDS011;1900;48.890;9.190;2023-04-21T14:14:59;9.10;;;6.00;;
3769;SDS011;1900;48.890;9.190;2023-04-21T14:17:25;8.20;;;6.83;;
3769;SDS011;1900;48.890;9.190;2023-04-21T14:19:51;6.37;;;5.10;;
3769;SDS011;1900;48.890;9.190;2023-04-21T14:22:17;9.57;;;6.50;;
3769;SDS011;1900;48.890;9.190;2023-04-21T14:24:43;9.10;;;7.07;;
3769;SDS011;1900;48.890;9.190;2023-04-21T14:27:09;5.20;;;4.70;;
3769;SDS011;1900;48.890;9.190;2023-04-21T14:29:35;11.27;;;6.90;;
3769;SDS011;1900;48.890;9.190;2023-04-21T14:32:00;7.80;;;6.07;;
3769;SDS011;1900;48.890;9.190;2023-04-21T14:34:26;6.83;;;5.57;;
3769;SDS011;1900;48.890;9.190;2023-04-21T14:36:52;8.70;;;6.23;;
3769;SDS011;1900;48.890;9.190;2023-04-21T14:39:18;6.33;;;4.93;;
3769;SDS011;1900;48.890;9.190;2023-04-21T14:41:44;8.83;;;6.00;;
3769;SDS011;1900;48.890;9.190;2023-04-21T14:44:10;10.50;;;7.57;;
3769;SDS011;1900;48.890;9.190;2023-04-21T14:46:35;7.90;;;6.23;;
3769;SDS011;1900;48.890;9.190;2023-04-21T14:49:02;9.03;;;7.03;;
3769;SDS011;1900;48.890;9.190;2023-04-21T14:51:28;4.70;;;4.20;;
3769;SDS011;1900;48.890;9.190;2023-04-21T14:53:56;9.83;;;5.97;;
3769;SDS011;1900;48.890;9.190;2023-04-21T14:56:21;6.03;;;5.00;;
3769;SDS011;1900;48.890;9.190;2023-04-21T14:58:47;4.57;;;4.00;;
3769;SDS011;1900;48.890;9.190;2023-04-21T15:01:13;5.63;;;4.93;;
3769;SDS011;1900;48.890;9.190;2023-04-21T15:03:39;6.60;;;5.87;;
3769;SDS011;1900;48.890;9.190;2023-04-21T15:06:04;4.30;;;3.90;;
3769;SDS011;1900;48.890;9.190;2023-04-21T15:08:30;5.43;;;4.93;;
3769;SDS011;1900;48.890;9.190;2023-04-21T15:10:56;8.80;;;4.03;;
3769;SDS011;1900;48.890;9.190;2023-04-21T15:13:22;5.37;;;4.60;;
3769;SDS011;1900;48.890;9.190;2023-04-21T15:15:48;8.93;;;5.87;;
3769;SDS011;1900;48.890;9.190;2023-04-21T15:18:15;7.63;;;6.20;;
3769;SDS011;1900;48.890;9.190;2023-04-21T15:20:41;5.33;;;4.27;;